Kenneth Carl — WDF8246 — position and weather

sailwx.info

Track history (hours):
 
Tides and Currents Weather Stations Pressure Air Temp Water Temp Dewpoint Dewpoint Depression Visibility Wind Speed Wind Dir Waves Ship Positions

Kenneth Carl

Owner: So. Cal. Ship Services, Inc., San Pedro, CA. More information available from US FCC via Universal Licensing System and Coast Guard Vessel Documentation Center.

Last reported at 2016-Sep-30 16:33 UTC. Time now 2016-Sep-30 16:57 UTC.
Position N 33°39' W 118°11'.

Length 31 m; draft 3 m.

Type: Ship. MMSI: 367492920.

Date/timePositionNaut miles runAvg speedWind from/ knotsBaromVisibWave heightAir tempDewpointWater temp
2016-Sep-30 16:33N 33°39' W 118°11'7 3.3
2016-Sep-30 14:31N 33°44' W 118°16'0 0.4
2016-Sep-30 13:32N 33°44' W 118°16'0 0.0
2016-Sep-30 10:32N 33°44' W 118°16'0 0.0
2016-Sep-30 08:32N 33°44' W 118°16'0 0.0
2016-Sep-30 06:32N 33°44' W 118°16'0 0.0
2016-Sep-30 03:32N 33°44' W 118°16'0 0.0
2016-Sep-30 02:32N 33°44' W 118°16'0 0.0
2016-Sep-29 23:32N 33°44' W 118°16'0 0.0
2016-Sep-29 21:32N 33°44' W 118°16'0 0.0
2016-Sep-29 20:32N 33°44' W 118°16'0 0.0
2016-Sep-29 19:29N 33°44' W 118°16'0 0.0
2016-Sep-29 16:32N 33°44' W 118°16'0 0.0
2016-Sep-29 15:32N 33°44' W 118°16'0 0.0
2016-Sep-29 14:32N 33°44' W 118°16'0 0.0
2016-Sep-29 13:20N 33°44' W 118°16'0 0.0
2016-Sep-29 08:20N 33°44' W 118°16'0 0.0
2016-Sep-29 07:29N 33°44' W 118°16'11 1.6
2016-Sep-29 00:33N 33°35' W 118°08'2 0.5
2016-Sep-28 21:33N 33°34' W 118°07'1 0.6
2016-Sep-28 19:33N 33°35' W 118°08'9 2.7
2016-Sep-28 16:23N 33°42' W 118°14'3 0.8
2016-Sep-28 12:33N 33°44' W 118°16'0 0.0
2016-Sep-28 08:33N 33°44' W 118°16'0 0.0
2016-Sep-28 02:30N 33°44' W 118°16'0 0.0
2016-Sep-28 01:24N 33°44' W 118°16'0 0.0
2016-Sep-27 23:33N 33°44' W 118°16'0 0.0
2016-Sep-26 08:12N 33°44' W 118°16'0 0.0
2016-Sep-26 02:15N 33°44' W 118°16'0 0.0
2016-Sep-26 01:30N 33°44' W 118°16'0 0.0
2016-Sep-25 17:21N 33°44' W 118°16'0 0.0
2016-Sep-25 16:30N 33°44' W 118°16'0 0.0
2016-Sep-25 15:30N 33°44' W 118°16'0 0.0
2016-Sep-25 14:33N 33°44' W 118°16'0 0.0
2016-Sep-25 12:21N 33°44' W 118°16'0 0.0
2016-Sep-25 11:33N 33°44' W 118°16'0 0.0
2016-Sep-25 10:33N 33°44' W 118°16'0 0.0
2016-Sep-25 09:30N 33°44' W 118°16'0 0.0
2016-Sep-25 07:33N 33°44' W 118°16'0 0.0
2016-Sep-25 04:12N 33°44' W 118°16'0 0.0
2016-Sep-25 00:33N 33°44' W 118°16'0 0.0
2016-Sep-24 22:24N 33°44' W 118°16'0 0.0
2016-Sep-24 21:09N 33°44' W 118°16'0 0.0
2016-Sep-24 19:33N 33°44' W 118°16'0 0.0
2016-Sep-24 18:33N 33°44' W 118°16'0 0.0
2016-Sep-24 17:30N 33°44' W 118°16'0 0.0
2016-Sep-24 16:33N 33°44' W 118°16'0 0.0
2016-Sep-24 14:33N 33°44' W 118°16'0 0.0
2016-Sep-24 12:33N 33°44' W 118°16'0 0.0
2016-Sep-24 10:24N 33°44' W 118°16'0 0.0
2016-Sep-24 09:33N 33°44' W 118°16'0 0.0
2016-Sep-24 03:30N 33°44' W 118°16'0 0.0
2016-Sep-24 02:27N 33°44' W 118°16'0 0.0
2016-Sep-24 01:33N 33°44' W 118°16'0 0.0
2016-Sep-24 00:30N 33°44' W 118°16'12 2.3
2016-Sep-23 19:27N 33°35' W 118°08'0 0.0
2016-Sep-23 17:29N 33°35' W 118°08'1 1.4
2016-Sep-23 16:33N 33°34' W 118°07'13 0.4
2016-Sep-22 04:30N 33°44' W 118°16'0 0.0
2016-Sep-22 03:27N 33°44' W 118°16'0 0.0
2016-Sep-20 17:21N 33°44' W 118°16'  
Track history (hours):
 
Tides and Currents Weather Stations Pressure Air Temp Water Temp Dewpoint Dewpoint Depression Visibility Wind Speed Wind Dir Waves Ship Positions

Kenneth Carl

Owner: So. Cal. Ship Services, Inc., San Pedro, CA. More information available from US FCC via Universal Licensing System and Coast Guard Vessel Documentation Center.

Last reported at 2016-Sep-30 16:33 UTC. Time now 2016-Sep-30 16:57 UTC.
Position N 33°39' W 118°11'.

Length 31 m; draft 3 m.

Type: Ship. MMSI: 367492920.

Date/timePositionNaut miles runAvg speedWind from/ knotsBaromVisibWave heightAir tempDewpointWater temp
2016-Sep-30 16:33N 33°39' W 118°11'7 3.3
2016-Sep-30 14:31N 33°44' W 118°16'0 0.4
2016-Sep-30 13:32N 33°44' W 118°16'0 0.0
2016-Sep-30 10:32N 33°44' W 118°16'0 0.0
2016-Sep-30 08:32N 33°44' W 118°16'0 0.0
2016-Sep-30 06:32N 33°44' W 118°16'0 0.0
2016-Sep-30 03:32N 33°44' W 118°16'0 0.0
2016-Sep-30 02:32N 33°44' W 118°16'0 0.0
2016-Sep-29 23:32N 33°44' W 118°16'0 0.0
2016-Sep-29 21:32N 33°44' W 118°16'0 0.0
2016-Sep-29 20:32N 33°44' W 118°16'0 0.0
2016-Sep-29 19:29N 33°44' W 118°16'0 0.0
2016-Sep-29 16:32N 33°44' W 118°16'0 0.0
2016-Sep-29 15:32N 33°44' W 118°16'0 0.0
2016-Sep-29 14:32N 33°44' W 118°16'0 0.0
2016-Sep-29 13:20N 33°44' W 118°16'0 0.0
2016-Sep-29 08:20N 33°44' W 118°16'0 0.0
2016-Sep-29 07:29N 33°44' W 118°16'11 1.6
2016-Sep-29 00:33N 33°35' W 118°08'2 0.5
2016-Sep-28 21:33N 33°34' W 118°07'1 0.6
2016-Sep-28 19:33N 33°35' W 118°08'9 2.7
2016-Sep-28 16:23N 33°42' W 118°14'3 0.8
2016-Sep-28 12:33N 33°44' W 118°16'0 0.0
2016-Sep-28 08:33N 33°44' W 118°16'0 0.0
2016-Sep-28 02:30N 33°44' W 118°16'0 0.0
2016-Sep-28 01:24N 33°44' W 118°16'0 0.0
2016-Sep-27 23:33N 33°44' W 118°16'0 0.0
2016-Sep-26 08:12N 33°44' W 118°16'0 0.0
2016-Sep-26 02:15N 33°44' W 118°16'0 0.0
2016-Sep-26 01:30N 33°44' W 118°16'0 0.0
2016-Sep-25 17:21N 33°44' W 118°16'0 0.0
2016-Sep-25 16:30N 33°44' W 118°16'0 0.0
2016-Sep-25 15:30N 33°44' W 118°16'0 0.0
2016-Sep-25 14:33N 33°44' W 118°16'0 0.0
2016-Sep-25 12:21N 33°44' W 118°16'0 0.0
2016-Sep-25 11:33N 33°44' W 118°16'0 0.0
2016-Sep-25 10:33N 33°44' W 118°16'0 0.0
2016-Sep-25 09:30N 33°44' W 118°16'0 0.0
2016-Sep-25 07:33N 33°44' W 118°16'0 0.0
2016-Sep-25 04:12N 33°44' W 118°16'0 0.0
2016-Sep-25 00:33N 33°44' W 118°16'0 0.0
2016-Sep-24 22:24N 33°44' W 118°16'0 0.0
2016-Sep-24 21:09N 33°44' W 118°16'0 0.0
2016-Sep-24 19:33N 33°44' W 118°16'0 0.0
2016-Sep-24 18:33N 33°44' W 118°16'0 0.0
2016-Sep-24 17:30N 33°44' W 118°16'0 0.0
2016-Sep-24 16:33N 33°44' W 118°16'0 0.0
2016-Sep-24 14:33N 33°44' W 118°16'0 0.0
2016-Sep-24 12:33N 33°44' W 118°16'0 0.0
2016-Sep-24 10:24N 33°44' W 118°16'0 0.0
2016-Sep-24 09:33N 33°44' W 118°16'0 0.0
2016-Sep-24 03:30N 33°44' W 118°16'0 0.0
2016-Sep-24 02:27N 33°44' W 118°16'0 0.0
2016-Sep-24 01:33N 33°44' W 118°16'0 0.0
2016-Sep-24 00:30N 33°44' W 118°16'12 2.3
2016-Sep-23 19:27N 33°35' W 118°08'0 0.0
2016-Sep-23 17:29N 33°35' W 118°08'1 1.4
2016-Sep-23 16:33N 33°34' W 118°07'13 0.4
2016-Sep-22 04:30N 33°44' W 118°16'0 0.0
2016-Sep-22 03:27N 33°44' W 118°16'0 0.0
2016-Sep-20 17:21N 33°44' W 118°16'  

Dump ship's entire track history